Terminal Aerodrome Forecast
Issued by NWS

Home | Current Version | Previous Version | Text Only | Print | Product List | Glossary On
Versions: 1 2 3 4 5 6 7 8 9 10 11 12 13 14 15 16 17 18 19 20
000
FTUS45 KRIW 270900 AAA
TAFWRL
TAF AMD
KWRL 270912Z 2709/2806 VRB04KT 1/2SM FZFG VV002
     FM271600 VRB04KT P6SM VCFG SCT005 BKN200
     FM271900 VRB05KT P6SM SCT140 BKN200
     FM280300 VRB03KT P6SM VCFG SCT003=

USA.gov is the U.S. government's official web portal to all federal, state and local government web resources and services.